sensor_id;sensor_type;location;lat;lon;timestamp;temperature;humidity
67748;HTU21D;54543;50.712;6.070;2023-07-13T00:00:35;15.60;61.18
67748;HTU21D;54543;50.712;6.070;2023-07-13T00:03:02;15.54;61.57
67748;HTU21D;54543;50.712;6.070;2023-07-13T00:05:27;15.51;61.50
67748;HTU21D;54543;50.712;6.070;2023-07-13T00:07:53;15.46;61.60
67748;HTU21D;54543;50.712;6.070;2023-07-13T00:10:20;15.40;61.79
67748;HTU21D;54543;50.712;6.070;2023-07-13T00:12:46;15.33;62.25
67748;HTU21D;54543;50.712;6.070;2023-07-13T00:15:15;15.25;62.69
67748;HTU21D;54543;50.712;6.070;2023-07-13T00:17:42;15.16;62.54
67748;HTU21D;54543;50.712;6.070;2023-07-13T00:20:11;15.15;63.29
67748;HTU21D;54543;50.712;6.070;2023-07-13T00:22:37;15.13;62.75
67748;HTU21D;54543;50.712;6.070;2023-07-13T00:25:03;15.06;62.88
67748;HTU21D;54543;50.712;6.070;2023-07-13T00:27:29;15.00;63.52
67748;HTU21D;54543;50.712;6.070;2023-07-13T00:30:00;14.97;63.23
67748;HTU21D;54543;50.712;6.070;2023-07-13T00:32:25;14.96;63.19
67748;HTU21D;54543;50.712;6.070;2023-07-13T00:34:52;14.96;63.44
67748;HTU21D;54543;50.712;6.070;2023-07-13T00:37:18;14.93;63.67
67748;HTU21D;54543;50.712;6.070;2023-07-13T00:39:43;14.91;63.61
67748;HTU21D;54543;50.712;6.070;2023-07-13T00:42:09;14.86;63.84
67748;HTU21D;54543;50.712;6.070;2023-07-13T00:44:37;14.82;64.52
67748;HTU21D;54543;50.712;6.070;2023-07-13T00:47:05;14.73;64.35
67748;HTU21D;54543;50.712;6.070;2023-07-13T00:49:32;14.68;64.74
67748;HTU21D;54543;50.712;6.070;2023-07-13T00:52:03;14.63;65.66
67748;HTU21D;54543;50.712;6.070;2023-07-13T00:54:40;14.57;66.84
67748;HTU21D;54543;50.712;6.070;2023-07-13T00:57:17;14.53;65.27
67748;HTU21D;54543;50.712;6.070;2023-07-13T00:59:47;14.54;65.47
67748;HTU21D;54543;50.712;6.070;2023-07-13T01:02:14;14.49;65.26
67748;HTU21D;54543;50.712;6.070;2023-07-13T01:04:39;14.45;65.22
67748;HTU21D;54543;50.712;6.070;2023-07-13T01:07:06;14.50;65.14
67748;HTU21D;54543;50.712;6.070;2023-07-13T01:09:32;14.49;65.35
67748;HTU21D;54543;50.712;6.070;2023-07-13T01:11:57;14.44;65.40
67748;HTU21D;54543;50.712;6.070;2023-07-13T01:14:24;14.37;65.91
67748;HTU21D;54543;50.712;6.070;2023-07-13T01:16:50;14.32;65.78
67748;HTU21D;54543;50.712;6.070;2023-07-13T01:22:16;14.24;68.08
67748;HTU21D;54543;50.712;6.070;2023-07-13T01:24:46;14.22;66.09
67748;HTU21D;54543;50.712;6.070;2023-07-13T01:27:16;14.24;66.42
67748;HTU21D;54543;50.712;6.070;2023-07-13T01:29:44;14.23;66.29
67748;HTU21D;54543;50.712;6.070;2023-07-13T01:32:17;14.23;67.03
67748;HTU21D;54543;50.712;6.070;2023-07-13T01:34:47;14.25;66.52
67748;HTU21D;54543;50.712;6.070;2023-07-13T01:37:12;14.34;66.63
67748;HTU21D;54543;50.712;6.070;2023-07-13T01:39:38;14.47;66.04
67748;HTU21D;54543;50.712;6.070;2023-07-13T01:42:04;14.54;65.66
67748;HTU21D;54543;50.712;6.070;2023-07-13T01:44:30;14.62;65.52
67748;HTU21D;54543;50.712;6.070;2023-07-13T01:46:56;14.69;65.34
67748;HTU21D;54543;50.712;6.070;2023-07-13T01:49:22;14.73;65.17
67748;HTU21D;54543;50.712;6.070;2023-07-13T01:51:47;14.80;65.35
67748;HTU21D;54543;50.712;6.070;2023-07-13T01:54:13;14.86;65.04
67748;HTU21D;54543;50.712;6.070;2023-07-13T01:56:38;14.88;64.76
67748;HTU21D;54543;50.712;6.070;2023-07-13T01:59:05;14.86;64.88
67748;HTU21D;54543;50.712;6.070;2023-07-13T02:01:30;14.85;64.94
67748;HTU21D;54543;50.712;6.070;2023-07-13T02:03:56;14.86;65.13
67748;HTU21D;54543;50.712;6.070;2023-07-13T02:06:21;14.87;65.30
67748;HTU21D;54543;50.712;6.070;2023-07-13T02:08:47;14.92;65.30
67748;HTU21D;54543;50.712;6.070;2023-07-13T02:11:12;14.92;65.27
67748;HTU21D;54543;50.712;6.070;2023-07-13T02:13:38;14.91;65.21
67748;HTU21D;54543;50.712;6.070;2023-07-13T02:16:04;14.87;65.77
67748;HTU21D;54543;50.712;6.070;2023-07-13T02:18:29;14.86;65.33
67748;HTU21D;54543;50.712;6.070;2023-07-13T02:20:55;14.86;65.62
67748;HTU21D;54543;50.712;6.070;2023-07-13T02:23:20;14.87;65.59
67748;HTU21D;54543;50.712;6.070;2023-07-13T02:25:46;14.92;66.31
67748;HTU21D;54543;50.712;6.070;2023-07-13T02:28:12;14.91;65.57
67748;HTU21D;54543;50.712;6.070;2023-07-13T02:30:37;14.89;66.07
67748;HTU21D;54543;50.712;6.070;2023-07-13T02:33:04;14.87;66.14
67748;HTU21D;54543;50.712;6.070;2023-07-13T02:35:30;14.83;66.15
67748;HTU21D;54543;50.712;6.070;2023-07-13T02:37:55;14.82;66.62
67748;HTU21D;54543;50.712;6.070;2023-07-13T02:40:21;14.82;66.74
67748;HTU21D;54543;50.712;6.070;2023-07-13T02:42:47;14.86;66.77
67748;HTU21D;54543;50.712;6.070;2023-07-13T02:45:12;14.86;66.97
67748;HTU21D;54543;50.712;6.070;2023-07-13T02:47:40;14.92;66.87
67748;HTU21D;54543;50.712;6.070;2023-07-13T02:50:06;14.94;66.95
67748;HTU21D;54543;50.712;6.070;2023-07-13T02:52:32;14.99;66.94
67748;HTU21D;54543;50.712;6.070;2023-07-13T02:54:57;14.98;66.87
67748;HTU21D;54543;50.712;6.070;2023-07-13T02:57:23;14.96;67.36
67748;HTU21D;54543;50.712;6.070;2023-07-13T02:59:49;14.95;66.98
67748;HTU21D;54543;50.712;6.070;2023-07-13T03:02:15;14.92;67.03
67748;HTU21D;54543;50.712;6.070;2023-07-13T03:04:41;14.88;67.51
67748;HTU21D;54543;50.712;6.070;2023-07-13T03:07:07;14.84;67.54
67748;HTU21D;54543;50.712;6.070;2023-07-13T03:09:33;14.82;67.94
67748;HTU21D;54543;50.712;6.070;2023-07-13T03:11:59;14.83;68.03
67748;HTU21D;54543;50.712;6.070;2023-07-13T03:14:25;14.84;67.91
67748;HTU21D;54543;50.712;6.070;2023-07-13T03:16:51;14.82;68.36
67748;HTU21D;54543;50.712;6.070;2023-07-13T03:19:17;14.83;68.51
67748;HTU21D;54543;50.712;6.070;2023-07-13T03:21:43;14.83;68.27
67748;HTU21D;54543;50.712;6.070;2023-07-13T03:24:09;14.86;68.71
67748;HTU21D;54543;50.712;6.070;2023-07-13T03:26:34;14.91;69.13
67748;HTU21D;54543;50.712;6.070;2023-07-13T03:29:00;14.96;68.72
67748;HTU21D;54543;50.712;6.070;2023-07-13T03:31:28;14.99;68.50
67748;HTU21D;54543;50.712;6.070;2023-07-13T03:33:55;14.96;68.48
67748;HTU21D;54543;50.712;6.070;2023-07-13T03:36:26;14.94;68.54
67748;HTU21D;54543;50.712;6.070;2023-07-13T03:38:54;14.92;68.51
67748;HTU21D;54543;50.712;6.070;2023-07-13T03:41:21;14.94;69.13
67748;HTU21D;54543;50.712;6.070;2023-07-13T03:43:46;14.98;69.52
67748;HTU21D;54543;50.712;6.070;2023-07-13T03:46:14;14.95;68.58
67748;HTU21D;54543;50.712;6.070;2023-07-13T03:48:41;14.95;68.86
67748;HTU21D;54543;50.712;6.070;2023-07-13T03:51:09;14.93;68.72
67748;HTU21D;54543;50.712;6.070;2023-07-13T03:53:38;14.86;69.82
67748;HTU21D;54543;50.712;6.070;2023-07-13T03:56:04;14.83;69.45
67748;HTU21D;54543;50.712;6.070;2023-07-13T03:58:35;14.85;69.97
67748;HTU21D;54543;50.712;6.070;2023-07-13T04:01:03;14.87;69.65
67748;HTU21D;54543;50.712;6.070;2023-07-13T04:03:29;14.91;69.39
67748;HTU21D;54543;50.712;6.070;2023-07-13T04:05:58;14.91;70.00
67748;HTU21D;54543;50.712;6.070;2023-07-13T04:08:27;14.92;69.70
67748;HTU21D;54543;50.712;6.070;2023-07-13T04:10:54;14.96;69.32
67748;HTU21D;54543;50.712;6.070;2023-07-13T04:13:19;14.97;69.41
67748;HTU21D;54543;50.712;6.070;2023-07-13T04:15:45;14.97;69.72
67748;HTU21D;54543;50.712;6.070;2023-07-13T04:18:10;14.97;69.80
67748;HTU21D;54543;50.712;6.070;2023-07-13T04:20:36;14.97;69.73
67748;HTU21D;54543;50.712;6.070;2023-07-13T04:23:01;14.98;69.90
67748;HTU21D;54543;50.712;6.070;2023-07-13T04:25:27;15.02;69.95
67748;HTU21D;54543;50.712;6.070;2023-07-13T04:27:53;15.03;72.23
67748;HTU21D;54543;50.712;6.070;2023-07-13T04:30:20;15.07;69.92
67748;HTU21D;54543;50.712;6.070;2023-07-13T04:32:45;15.08;69.50
67748;HTU21D;54543;50.712;6.070;2023-07-13T04:35:11;15.06;69.77
67748;HTU21D;54543;50.712;6.070;2023-07-13T04:37:37;15.06;70.23
67748;HTU21D;54543;50.712;6.070;2023-07-13T04:40:03;15.06;70.69
67748;HTU21D;54543;50.712;6.070;2023-07-13T04:42:29;15.08;69.78
67748;HTU21D;54543;50.712;6.070;2023-07-13T04:44:55;15.07;72.98
67748;HTU21D;54543;50.712;6.070;2023-07-13T04:47:20;15.18;71.59
67748;HTU21D;54543;50.712;6.070;2023-07-13T04:49:46;15.31;70.58
67748;HTU21D;54543;50.712;6.070;2023-07-13T04:52:12;15.40;70.13
67748;HTU21D;54543;50.712;6.070;2023-07-13T04:54:38;15.39;70.32
67748;HTU21D;54543;50.712;6.070;2023-07-13T04:57:04;15.44;72.09
67748;HTU21D;54543;50.712;6.070;2023-07-13T04:59:34;15.49;70.61
67748;HTU21D;54543;50.712;6.070;2023-07-13T05:02:00;15.59;70.37
67748;HTU21D;54543;50.712;6.070;2023-07-13T05:04:27;15.71;70.06
67748;HTU21D;54543;50.712;6.070;2023-07-13T05:06:52;15.82;69.81
67748;HTU21D;54543;50.712;6.070;2023-07-13T05:09:18;15.91;70.26
67748;HTU21D;54543;50.712;6.070;2023-07-13T05:11:44;16.01;69.23
67748;HTU21D;54543;50.712;6.070;2023-07-13T05:14:09;16.07;69.07
67748;HTU21D;54543;50.712;6.070;2023-07-13T05:16:36;16.12;68.55
67748;HTU21D;54543;50.712;6.070;2023-07-13T05:19:02;16.11;68.94
67748;HTU21D;54543;50.712;6.070;2023-07-13T05:21:28;16.13;69.07
67748;HTU21D;54543;50.712;6.070;2023-07-13T05:23:54;16.14;69.73
67748;HTU21D;54543;50.712;6.070;2023-07-13T05:26:19;16.14;69.39
67748;HTU21D;54543;50.712;6.070;2023-07-13T05:28:46;16.14;68.97
67748;HTU21D;54543;50.712;6.070;2023-07-13T05:31:12;16.13;69.97
67748;HTU21D;54543;50.712;6.070;2023-07-13T05:33:38;16.14;69.66
67748;HTU21D;54543;50.712;6.070;2023-07-13T05:36:03;16.10;69.93
67748;HTU21D;54543;50.712;6.070;2023-07-13T05:38:29;16.14;69.97
67748;HTU21D;54543;50.712;6.070;2023-07-13T05:40:55;16.16;70.16
67748;HTU21D;54543;50.712;6.070;2023-07-13T05:43:22;16.20;69.80
67748;HTU21D;54543;50.712;6.070;2023-07-13T05:45:48;16.17;69.89
67748;HTU21D;54543;50.712;6.070;2023-07-13T05:48:15;16.10;70.52
67748;HTU21D;54543;50.712;6.070;2023-07-13T05:50:40;16.05;70.51
67748;HTU21D;54543;50.712;6.070;2023-07-13T05:53:06;16.05;70.87
67748;HTU21D;54543;50.712;6.070;2023-07-13T05:55:32;16.01;71.12
67748;HTU21D;54543;50.712;6.070;2023-07-13T05:57:59;16.00;70.92
67748;HTU21D;54543;50.712;6.070;2023-07-13T06:00:25;16.02;71.80
67748;HTU21D;54543;50.712;6.070;2023-07-13T06:02:50;16.04;72.71
67748;HTU21D;54543;50.712;6.070;2023-07-13T06:05:16;16.12;71.52
67748;HTU21D;54543;50.712;6.070;2023-07-13T06:07:42;16.19;71.42
67748;HTU21D;54543;50.712;6.070;2023-07-13T06:10:08;16.28;71.41
67748;HTU21D;54543;50.712;6.070;2023-07-13T06:12:34;16.31;70.92
67748;HTU21D;54543;50.712;6.070;2023-07-13T06:14:59;16.29;72.19
67748;HTU21D;54543;50.712;6.070;2023-07-13T06:17:25;16.28;71.26
67748;HTU21D;54543;50.712;6.070;2023-07-13T06:19:50;16.28;72.35
67748;HTU21D;54543;50.712;6.070;2023-07-13T06:22:16;16.31;71.71
67748;HTU21D;54543;50.712;6.070;2023-07-13T06:24:41;16.33;72.25
67748;HTU21D;54543;50.712;6.070;2023-07-13T06:27:07;16.35;71.61
67748;HTU21D;54543;50.712;6.070;2023-07-13T06:29:33;16.44;71.80
67748;HTU21D;54543;50.712;6.070;2023-07-13T06:31:58;16.59;72.63
67748;HTU21D;54543;50.712;6.070;2023-07-13T06:34:24;16.65;70.71
67748;HTU21D;54543;50.712;6.070;2023-07-13T06:36:49;16.73;70.76
67748;HTU21D;54543;50.712;6.070;2023-07-13T06:39:15;16.89;70.58
67748;HTU21D;54543;50.712;6.070;2023-07-13T06:41:41;17.00;70.66
67748;HTU21D;54543;50.712;6.070;2023-07-13T06:44:06;17.10;70.28
67748;HTU21D;54543;50.712;6.070;2023-07-13T06:46:32;17.16;69.81
67748;HTU21D;54543;50.712;6.070;2023-07-13T06:48:58;17.07;69.85
67748;HTU21D;54543;50.712;6.070;2023-07-13T06:51:24;17.03;69.86
67748;HTU21D;54543;50.712;6.070;2023-07-13T06:53:51;17.04;70.25
67748;HTU21D;54543;50.712;6.070;2023-07-13T06:56:17;17.05;70.48
67748;HTU21D;54543;50.712;6.070;2023-07-13T06:58:42;17.14;70.21
67748;HTU21D;54543;50.712;6.070;2023-07-13T07:01:08;17.16;70.23
67748;HTU21D;54543;50.712;6.070;2023-07-13T07:03:34;17.17;69.73
67748;HTU21D;54543;50.712;6.070;2023-07-13T07:06:01;17.20;69.52
67748;HTU21D;54543;50.712;6.070;2023-07-13T07:08:27;17.26;69.76
67748;HTU21D;54543;50.712;6.070;2023-07-13T07:10:53;17.38;69.52
67748;HTU21D;54543;50.712;6.070;2023-07-13T07:13:19;17.51;68.87
67748;HTU21D;54543;50.712;6.070;2023-07-13T07:15:45;17.50;69.56
67748;HTU21D;54543;50.712;6.070;2023-07-13T07:18:10;17.48;69.18
67748;HTU21D;54543;50.712;6.070;2023-07-13T07:20:36;17.46;69.23
67748;HTU21D;54543;50.712;6.070;2023-07-13T07:23:01;17.54;69.19
67748;HTU21D;54543;50.712;6.070;2023-07-13T07:25:27;17.64;68.99
67748;HTU21D;54543;50.712;6.070;2023-07-13T07:27:57;17.68;68.84
67748;HTU21D;54543;50.712;6.070;2023-07-13T07:30:24;17.81;68.22
67748;HTU21D;54543;50.712;6.070;2023-07-13T07:32:49;17.85;68.02
67748;HTU21D;54543;50.712;6.070;2023-07-13T07:35:15;17.80;68.48
67748;HTU21D;54543;50.712;6.070;2023-07-13T07:37:40;17.84;68.20
67748;HTU21D;54543;50.712;6.070;2023-07-13T07:40:07;17.91;68.01
67748;HTU21D;54543;50.712;6.070;2023-07-13T07:42:33;17.97;67.97
67748;HTU21D;54543;50.712;6.070;2023-07-13T07:44:59;18.11;67.55
67748;HTU21D;54543;50.712;6.070;2023-07-13T07:47:26;18.23;67.20
67748;HTU21D;54543;50.712;6.070;2023-07-13T07:49:52;18.30;66.52
67748;HTU21D;54543;50.712;6.070;2023-07-13T07:52:18;18.26;66.33
67748;HTU21D;54543;50.712;6.070;2023-07-13T07:54:44;18.25;66.75
67748;HTU21D;54543;50.712;6.070;2023-07-13T07:57:09;18.32;66.74
67748;HTU21D;54543;50.712;6.070;2023-07-13T07:59:36;18.38;66.05
67748;HTU21D;54543;50.712;6.070;2023-07-13T08:02:02;18.38;65.98
67748;HTU21D;54543;50.712;6.070;2023-07-13T08:04:28;18.33;65.82
67748;HTU21D;54543;50.712;6.070;2023-07-13T08:06:53;18.29;65.91
67748;HTU21D;54543;50.712;6.070;2023-07-13T08:09:21;18.33;65.65
67748;HTU21D;54543;50.712;6.070;2023-07-13T08:11:47;18.33;66.04
67748;HTU21D;54543;50.712;6.070;2023-07-13T08:14:12;18.44;65.96
67748;HTU21D;54543;50.712;6.070;2023-07-13T08:16:38;18.51;65.82
67748;HTU21D;54543;50.712;6.070;2023-07-13T08:19:04;18.61;65.23
67748;HTU21D;54543;50.712;6.070;2023-07-13T08:21:31;18.65;64.90
67748;HTU21D;54543;50.712;6.070;2023-07-13T08:23:57;18.61;64.75
67748;HTU21D;54543;50.712;6.070;2023-07-13T08:26:22;18.53;65.53
67748;HTU21D;54543;50.712;6.070;2023-07-13T08:28:48;18.58;65.48
67748;HTU21D;54543;50.712;6.070;2023-07-13T08:31:14;18.54;65.14
67748;HTU21D;54543;50.712;6.070;2023-07-13T08:33:40;18.44;65.07
67748;HTU21D;54543;50.712;6.070;2023-07-13T08:36:06;18.48;65.55
67748;HTU21D;54543;50.712;6.070;2023-07-13T08:38:32;18.64;65.67
67748;HTU21D;54543;50.712;6.070;2023-07-13T08:40:58;18.83;64.82
67748;HTU21D;54543;50.712;6.070;2023-07-13T08:43:34;18.92;64.72
67748;HTU21D;54543;50.712;6.070;2023-07-13T08:46:08;19.09;64.29
67748;HTU21D;54543;50.712;6.070;2023-07-13T08:51:39;19.26;63.81
67748;HTU21D;54543;50.712;6.070;2023-07-13T08:54:42;19.47;63.03
67748;HTU21D;54543;50.712;6.070;2023-07-13T08:57:17;19.75;62.34
67748;HTU21D;54543;50.712;6.070;2023-07-13T08:59:44;19.89;62.21
67748;HTU21D;54543;50.712;6.070;2023-07-13T09:02:26;19.90;61.50
67748;HTU21D;54543;50.712;6.070;2023-07-13T09:05:42;19.81;61.89
67748;HTU21D;54543;50.712;6.070;2023-07-13T09:08:16;19.80;62.63
67748;HTU21D;54543;50.712;6.070;2023-07-13T09:10:51;19.98;61.86
67748;HTU21D;54543;50.712;6.070;2023-07-13T09:15:51;20.09;61.27
67748;HTU21D;54543;50.712;6.070;2023-07-13T09:18:35;20.07;59.83
67748;HTU21D;54543;50.712;6.070;2023-07-13T09:21:25;19.91;60.57
67748;HTU21D;54543;50.712;6.070;2023-07-13T09:23:59;19.87;61.61
67748;HTU21D;54543;50.712;6.070;2023-07-13T09:26:28;20.03;61.06
67748;HTU21D;54543;50.712;6.070;2023-07-13T09:29:03;20.27;60.22
67748;HTU21D;54543;50.712;6.070;2023-07-13T09:31:43;20.35;60.51
67748;HTU21D;54543;50.712;6.070;2023-07-13T09:34:11;20.51;59.86
67748;HTU21D;54543;50.712;6.070;2023-07-13T09:36:37;20.45;60.09
67748;HTU21D;54543;50.712;6.070;2023-07-13T09:39:09;20.40;60.22
67748;HTU21D;54543;50.712;6.070;2023-07-13T09:42:06;20.36;58.92
67748;HTU21D;54543;50.712;6.070;2023-07-13T09:44:38;20.32;59.99
67748;HTU21D;54543;50.712;6.070;2023-07-13T09:47:16;20.60;58.36
67748;HTU21D;54543;50.712;6.070;2023-07-13T09:49:42;20.85;58.74
67748;HTU21D;54543;50.712;6.070;2023-07-13T09:52:12;21.07;57.29
67748;HTU21D;54543;50.712;6.070;2023-07-13T09:54:43;21.25;58.12
67748;HTU21D;54543;50.712;6.070;2023-07-13T09:57:15;21.37;57.10
67748;HTU21D;54543;50.712;6.070;2023-07-13T09:59:45;21.47;56.55
67748;HTU21D;54543;50.712;6.070;2023-07-13T10:02:30;21.38;56.09
67748;HTU21D;54543;50.712;6.070;2023-07-13T10:05:06;21.17;55.84
67748;HTU21D;54543;50.712;6.070;2023-07-13T10:07:38;21.28;56.00
67748;HTU21D;54543;50.712;6.070;2023-07-13T10:10:20;21.49;54.43
67748;HTU21D;54543;50.712;6.070;2023-07-13T10:12:47;21.74;54.81
67748;HTU21D;54543;50.712;6.070;2023-07-13T10:15:30;21.90;53.90
67748;HTU21D;54543;50.712;6.070;2023-07-13T10:17:57;22.06;54.53
67748;HTU21D;54543;50.712;6.070;2023-07-13T10:20:24;22.07;54.30
67748;HTU21D;54543;50.712;6.070;2023-07-13T10:22:56;22.03;52.68
67748;HTU21D;54543;50.712;6.070;2023-07-13T10:25:27;21.99;51.60
67748;HTU21D;54543;50.712;6.070;2023-07-13T10:28:01;21.92;51.84
67748;HTU21D;54543;50.712;6.070;2023-07-13T10:30:34;21.97;53.52
67748;HTU21D;54543;50.712;6.070;2023-07-13T10:33:08;21.95;53.01
67748;HTU21D;54543;50.712;6.070;2023-07-13T10:35:37;21.81;52.14
67748;HTU21D;54543;50.712;6.070;2023-07-13T10:38:15;21.50;53.19
67748;HTU21D;54543;50.712;6.070;2023-07-13T10:40:52;21.32;53.93
67748;HTU21D;54543;50.712;6.070;2023-07-13T10:43:33;21.18;54.28
67748;HTU21D;54543;50.712;6.070;2023-07-13T10:46:04;21.13;54.58
67748;HTU21D;54543;50.712;6.070;2023-07-13T10:48:31;21.09;54.55
67748;HTU21D;54543;50.712;6.070;2023-07-13T10:51:00;21.13;55.16
67748;HTU21D;54543;50.712;6.070;2023-07-13T10:53:32;21.25;54.23
67748;HTU21D;54543;50.712;6.070;2023-07-13T10:56:00;21.39;54.44
67748;HTU21D;54543;50.712;6.070;2023-07-13T10:58:37;21.47;53.52
67748;HTU21D;54543;50.712;6.070;2023-07-13T11:01:16;21.47;53.39
67748;HTU21D;54543;50.712;6.070;2023-07-13T11:06:41;21.29;54.58
67748;HTU21D;54543;50.712;6.070;2023-07-13T11:09:30;21.34;54.55
67748;HTU21D;54543;50.712;6.070;2023-07-13T11:12:08;21.28;54.60
67748;HTU21D;54543;50.712;6.070;2023-07-13T11:14:38;21.20;54.55
67748;HTU21D;54543;50.712;6.070;2023-07-13T11:17:35;21.14;55.42
67748;HTU21D;54543;50.712;6.070;2023-07-13T11:23:07;21.33;54.55
67748;HTU21D;54543;50.712;6.070;2023-07-13T11:25:34;21.52;54.42
67748;HTU21D;54543;50.712;6.070;2023-07-13T11:28:16;21.78;53.75
67748;HTU21D;54543;50.712;6.070;2023-07-13T11:33:23;22.19;53.07
67748;HTU21D;54543;50.712;6.070;2023-07-13T11:36:16;22.31;51.97
67748;HTU21D;54543;50.712;6.070;2023-07-13T11:38:45;22.33;51.66
67748;HTU21D;54543;50.712;6.070;2023-07-13T11:41:31;22.24;51.11
67748;HTU21D;54543;50.712;6.070;2023-07-13T11:44:12;22.13;50.73
67748;HTU21D;54543;50.712;6.070;2023-07-13T11:46:44;22.03;51.11
67748;HTU21D;54543;50.712;6.070;2023-07-13T11:49:15;21.96;51.55
67748;HTU21D;54543;50.712;6.070;2023-07-13T11:51:40;21.89;51.65
67748;HTU21D;54543;50.712;6.070;2023-07-13T11:56:43;21.89;50.95
67748;HTU21D;54543;50.712;6.070;2023-07-13T11:59:11;21.90;51.42
67748;HTU21D;54543;50.712;6.070;2023-07-13T12:01:44;21.89;51.43
67748;HTU21D;54543;50.712;6.070;2023-07-13T12:04:26;21.89;51.31
67748;HTU21D;54543;50.712;6.070;2023-07-13T12:07:03;22.01;51.69
67748;HTU21D;54543;50.712;6.070;2023-07-13T12:09:29;22.08;50.54
67748;HTU21D;54543;50.712;6.070;2023-07-13T12:11:57;22.14;50.80
67748;HTU21D;54543;50.712;6.070;2023-07-13T12:14:25;22.16;50.46
67748;HTU21D;54543;50.712;6.070;2023-07-13T12:16:52;22.26;50.86
67748;HTU21D;54543;50.712;6.070;2023-07-13T12:19:28;22.29;49.28
67748;HTU21D;54543;50.712;6.070;2023-07-13T12:21:56;22.37;50.31
67748;HTU21D;54543;50.712;6.070;2023-07-13T12:24:23;22.55;50.14
67748;HTU21D;54543;50.712;6.070;2023-07-13T12:26:55;22.75;48.47
67748;HTU21D;54543;50.712;6.070;2023-07-13T12:29:23;22.77;47.72
67748;HTU21D;54543;50.712;6.070;2023-07-13T12:31:50;22.68;49.08
67748;HTU21D;54543;50.712;6.070;2023-07-13T12:34:21;22.56;48.08
67748;HTU21D;54543;50.712;6.070;2023-07-13T12:36:54;22.53;47.57
67748;HTU21D;54543;50.712;6.070;2023-07-13T12:39:24;22.48;48.27
67748;HTU21D;54543;50.712;6.070;2023-07-13T12:41:52;22.50;49.35
67748;HTU21D;54543;50.712;6.070;2023-07-13T12:44:24;22.55;50.06
67748;HTU21D;54543;50.712;6.070;2023-07-13T12:47:04;22.55;49.12
67748;HTU21D;54543;50.712;6.070;2023-07-13T12:49:41;22.65;48.44
67748;HTU21D;54543;50.712;6.070;2023-07-13T12:52:15;23.00;48.94
67748;HTU21D;54543;50.712;6.070;2023-07-13T12:54:41;23.17;48.90
67748;HTU21D;54543;50.712;6.070;2023-07-13T12:57:14;23.26;48.55
67748;HTU21D;54543;50.712;6.070;2023-07-13T12:59:42;23.30;47.46
67748;HTU21D;54543;50.712;6.070;2023-07-13T13:02:29;23.34;46.68
67748;HTU21D;54543;50.712;6.070;2023-07-13T13:04:56;23.32;47.53
67748;HTU21D;54543;50.712;6.070;2023-07-13T13:07:23;23.26;47.08
67748;HTU21D;54543;50.712;6.070;2023-07-13T13:09:49;23.22;47.88
67748;HTU21D;54543;50.712;6.070;2023-07-13T13:12:14;23.23;47.92
67748;HTU21D;54543;50.712;6.070;2023-07-13T13:14:40;23.28;47.39
67748;HTU21D;54543;50.712;6.070;2023-07-13T13:17:20;23.13;47.60
67748;HTU21D;54543;50.712;6.070;2023-07-13T13:19:47;23.28;47.83
67748;HTU21D;54543;50.712;6.070;2023-07-13T13:22:12;23.40;48.11
67748;HTU21D;54543;50.712;6.070;2023-07-13T13:24:39;23.47;46.67
67748;HTU21D;54543;50.712;6.070;2023-07-13T13:27:04;23.41;46.87
67748;HTU21D;54543;50.712;6.070;2023-07-13T13:29:32;23.35;47.17
67748;HTU21D;54543;50.712;6.070;2023-07-13T13:31:59;23.39;47.07
67748;HTU21D;54543;50.712;6.070;2023-07-13T13:34:25;23.37;46.65
67748;HTU21D;54543;50.712;6.070;2023-07-13T13:36:52;23.36;47.42
67748;HTU21D;54543;50.712;6.070;2023-07-13T13:39:24;23.46;46.43
67748;HTU21D;54543;50.712;6.070;2023-07-13T13:41:51;23.52;46.31
67748;HTU21D;54543;50.712;6.070;2023-07-13T13:44:18;23.45;46.54
67748;HTU21D;54543;50.712;6.070;2023-07-13T13:46:46;23.49;46.62
67748;HTU21D;54543;50.712;6.070;2023-07-13T13:49:23;23.49;45.57
67748;HTU21D;54543;50.712;6.070;2023-07-13T13:51:50;23.53;45.65
67748;HTU21D;54543;50.712;6.070;2023-07-13T13:54:17;23.49;45.48
67748;HTU21D;54543;50.712;6.070;2023-07-13T13:56:44;23.54;46.12
67748;HTU21D;54543;50.712;6.070;2023-07-13T13:59:11;23.69;46.26
67748;HTU21D;54543;50.712;6.070;2023-07-13T14:01:37;23.80;45.58
67748;HTU21D;54543;50.712;6.070;2023-07-13T14:04:04;23.88;45.61
67748;HTU21D;54543;50.712;6.070;2023-07-13T14:06:31;23.98;46.10
67748;HTU21D;54543;50.712;6.070;2023-07-13T14:08:57;24.03;45.80
67748;HTU21D;54543;50.712;6.070;2023-07-13T14:11:23;24.11;45.50
67748;HTU21D;54543;50.712;6.070;2023-07-13T14:13:51;24.16;45.32
67748;HTU21D;54543;50.712;6.070;2023-07-13T14:16:19;24.27;45.53
67748;HTU21D;54543;50.712;6.070;2023-07-13T14:18:47;24.20;44.49
67748;HTU21D;54543;50.712;6.070;2023-07-13T14:21:18;24.16;43.89
67748;HTU21D;54543;50.712;6.070;2023-07-13T14:23:45;24.25;44.88
67748;HTU21D;54543;50.712;6.070;2023-07-13T14:26:14;24.27;44.54
67748;HTU21D;54543;50.712;6.070;2023-07-13T14:28:42;24.49;42.74
67748;HTU21D;54543;50.712;6.070;2023-07-13T14:31:09;24.49;44.16
67748;HTU21D;54543;50.712;6.070;2023-07-13T14:33:35;24.55;44.30
67748;HTU21D;54543;50.712;6.070;2023-07-13T14:36:01;24.57;44.24
67748;HTU21D;54543;50.712;6.070;2023-07-13T14:38:27;24.45;42.24
67748;HTU21D;54543;50.712;6.070;2023-07-13T14:40:52;24.18;43.93
67748;HTU21D;54543;50.712;6.070;2023-07-13T14:43:18;23.92;44.58
67748;HTU21D;54543;50.712;6.070;2023-07-13T14:45:48;23.79;44.22
67748;HTU21D;54543;50.712;6.070;2023-07-13T14:48:22;23.53;43.83
67748;HTU21D;54543;50.712;6.070;2023-07-13T14:50:58;23.29;44.53
67748;HTU21D;54543;50.712;6.070;2023-07-13T14:53:27;23.03;45.45
67748;HTU21D;54543;50.712;6.070;2023-07-13T14:55:53;22.84;46.22
67748;HTU21D;54543;50.712;6.070;2023-07-13T14:58:19;22.71;46.15
67748;HTU21D;54543;50.712;6.070;2023-07-13T15:00:44;22.53;46.83
67748;HTU21D;54543;50.712;6.070;2023-07-13T15:03:23;22.44;47.22
67748;HTU21D;54543;50.712;6.070;2023-07-13T15:05:50;22.36;47.50
67748;HTU21D;54543;50.712;6.070;2023-07-13T15:08:16;22.29;47.60
67748;HTU21D;54543;50.712;6.070;2023-07-13T15:10:42;22.16;48.02
67748;HTU21D;54543;50.712;6.070;2023-07-13T15:13:15;22.07;48.79
67748;HTU21D;54543;50.712;6.070;2023-07-13T15:15:45;21.99;48.76
67748;HTU21D;54543;50.712;6.070;2023-07-13T15:18:11;21.95;49.17
67748;HTU21D;54543;50.712;6.070;2023-07-13T15:20:38;21.98;49.24
67748;HTU21D;54543;50.712;6.070;2023-07-13T15:23:04;22.05;49.25
67748;HTU21D;54543;50.712;6.070;2023-07-13T15:25:32;22.11;49.44
67748;HTU21D;54543;50.712;6.070;2023-07-13T15:27:59;22.19;49.32
67748;HTU21D;54543;50.712;6.070;2023-07-13T15:30:28;22.23;49.51
67748;HTU21D;54543;50.712;6.070;2023-07-13T15:32:57;22.25;49.78
67748;HTU21D;54543;50.712;6.070;2023-07-13T15:35:26;22.29;49.93
67748;HTU21D;54543;50.712;6.070;2023-07-13T15:37:53;22.36;50.02
67748;HTU21D;54543;50.712;6.070;2023-07-13T15:40:20;22.32;50.47
67748;HTU21D;54543;50.712;6.070;2023-07-13T15:42:48;22.28;50.74